« Back
NWS Peachtree City, Ga » Text Product » CSG Terminal Aerodrome Forecast


Printer-friendly Version
Current Version              Previous Versions:   1  2  3  4  5  6  7  8  9  

Terminal Aerodrome Forecast

300
FTUS42 KFFC 280331 AAA
TAFCSG
TAF AMD
KCSG 280331Z 2803/2824 32006KT P6SM SKC
     FM281200 VRB03KT P6SM SKC=

USA.gov is the U.S. government's official web portal to all federal, state and local government web resources and services.